This is the latest recevied weather packets stored in our database for station/object W4JCW. If no packets are shown the sender has not sent any weather packets the latest 10 day(s).
| Time | Temp. | Humidity | Pressure | Rain* | Wind** | Luminosity | Snow |
|---|---|---|---|---|---|---|---|
| 1777901884 | 17.78° C | 66% | 1016.5 hPa | 0 mm | - | 496 W/m² | - |
| 1777901582 | 17.78° C | 67% | 1016.4 hPa | 0 mm | - | 481 W/m² | - |
| 1777901279 | 16.67° C | 70% | 1016.4 hPa | 0 mm | - | 481 W/m² | - |
| 1777900976 | 16.11° C | 72% | 1016.4 hPa | 0 mm | - | 436 W/m² | - |
| 1777900674 | 15.56° C | 73% | 1016.5 hPa | 0 mm | - | 382 W/m² | - |
| 1777900371 | 15° C | 76% | 1016.3 hPa | 0 mm | - | 343 W/m² | - |
| 1777900068 | 15° C | 78% | 1016.3 hPa | 0 mm | - | 140 W/m² | - |
| 1777899764 | 14.44° C | 79% | 1016.3 hPa | 0 mm | - | 126 W/m² | - |
| 1777899461 | 13.89° C | 80% | 1016.2 hPa | 0 mm | - | 133 W/m² | - |
| 1777899159 | 13.89° C | 81% | 1016.4 hPa | 0 mm | - | 98 W/m² | - |
| 1777898856 | 13.89° C | 82% | 1016.3 hPa | 0 mm | - | 63 W/m² | - |
| 1777898553 | 13.33° C | 84% | 1016.4 hPa | 0 mm | - | 99 W/m² | - |
| 1777898251 | 12.78° C | 87% | 1016.5 hPa | 0 mm | - | 285 W/m² | - |
| 1777897948 | 12.22° C | 91% | 1016.5 hPa | 0 mm | - | 260 W/m² | - |
| 1777897644 | 11.11° C | 95% | 1016.8 hPa | 0 mm | - | 200 W/m² | - |
| 1777897340 | 11.11° C | 97% | 1016.5 hPa | 0 mm | - | 151 W/m² | - |
| 1777897036 | 10.56° C | 97% | 1016.4 hPa | 0 mm | - | 73 W/m² | - |
| 1777896733 | 10° C | 97% | 1016.4 hPa | 0 mm | - | 57 W/m² | - |
| 1777896430 | 10° C | 98% | 1016.6 hPa | 0 mm | - | 42 W/m² | - |
| 1777896128 | 10° C | 97% | 1016.2 hPa | 0 mm | - | 72 W/m² | - |
| 1777895825 | 9.44° C | 97% | 1016.5 hPa | 0 mm | - | 38 W/m² | - |
| 1777895522 | 9.44° C | 97% | 1016.4 hPa | 0 mm | - | 38 W/m² | - |
| 1777895220 | 8.89° C | 97% | 1016.4 hPa | 0 mm | - | 54 W/m² | - |
| 1777894917 | 8.89° C | 97% | 1016.4 hPa | 0 mm | - | 37 W/m² | - |
| 1777894614 | 8.89° C | 97% | 1016.4 hPa | 0 mm | - | 33 W/m² | - |
* Rain latest hour (hover to see other rain measurements)
** Current wind speed in m/s (hover to see current wind gust speed)